sensor_id;sensor_type;location;lat;lon;timestamp;temperature;humidity
46416;DHT22;32620;51.704;7.822;2023-02-04T00:00:59;4.30;99.90
46416;DHT22;32620;51.704;7.822;2023-02-04T00:03:24;4.20;99.90
46416;DHT22;32620;51.704;7.822;2023-02-04T00:05:50;4.20;99.90
46416;DHT22;32620;51.704;7.822;2023-02-04T00:08:16;4.30;99.90
46416;DHT22;32620;51.704;7.822;2023-02-04T00:10:41;4.20;99.90
46416;DHT22;32620;51.704;7.822;2023-02-04T00:13:06;4.10;99.90
46416;DHT22;32620;51.704;7.822;2023-02-04T00:15:32;4.10;99.90
46416;DHT22;32620;51.704;7.822;2023-02-04T00:17:58;4.10;99.90
46416;DHT22;32620;51.704;7.822;2023-02-04T00:20:24;4.20;99.90
46416;DHT22;32620;51.704;7.822;2023-02-04T00:22:49;4.30;99.90
46416;DHT22;32620;51.704;7.822;2023-02-04T00:25:16;4.20;99.90
46416;DHT22;32620;51.704;7.822;2023-02-04T00:27:41;4.20;99.90
46416;DHT22;32620;51.704;7.822;2023-02-04T00:30:07;4.20;99.90
46416;DHT22;32620;51.704;7.822;2023-02-04T00:32:33;4.20;99.90
46416;DHT22;32620;51.704;7.822;2023-02-04T00:34:59;4.20;99.90
46416;DHT22;32620;51.704;7.822;2023-02-04T00:37:29;4.10;99.90
46416;DHT22;32620;51.704;7.822;2023-02-04T00:39:55;4.10;99.90
46416;DHT22;32620;51.704;7.822;2023-02-04T00:42:20;4.10;99.90
46416;DHT22;32620;51.704;7.822;2023-02-04T00:44:46;4.10;99.90
46416;DHT22;32620;51.704;7.822;2023-02-04T00:47:11;4.20;99.90
46416;DHT22;32620;51.704;7.822;2023-02-04T00:49:37;4.30;99.90
46416;DHT22;32620;51.704;7.822;2023-02-04T00:52:02;4.40;99.90
46416;DHT22;32620;51.704;7.822;2023-02-04T00:54:28;4.40;99.90
46416;DHT22;32620;51.704;7.822;2023-02-04T00:56:54;4.40;99.90
46416;DHT22;32620;51.704;7.822;2023-02-04T00:59:19;4.40;99.90
46416;DHT22;32620;51.704;7.822;2023-02-04T01:01:45;4.40;99.90
46416;DHT22;32620;51.704;7.822;2023-02-04T01:04:10;4.40;99.90
46416;DHT22;32620;51.704;7.822;2023-02-04T01:06:36;4.40;99.90
46416;DHT22;32620;51.704;7.822;2023-02-04T01:09:02;4.40;99.90
46416;DHT22;32620;51.704;7.822;2023-02-04T01:11:28;4.30;99.90
46416;DHT22;32620;51.704;7.822;2023-02-04T01:13:54;4.40;99.90
46416;DHT22;32620;51.704;7.822;2023-02-04T01:16:20;4.50;99.90
46416;DHT22;32620;51.704;7.822;2023-02-04T01:18:45;4.50;99.90
46416;DHT22;32620;51.704;7.822;2023-02-04T01:21:11;4.50;99.90
46416;DHT22;32620;51.704;7.822;2023-02-04T01:23:36;4.60;99.90
46416;DHT22;32620;51.704;7.822;2023-02-04T01:26:02;4.60;99.90
46416;DHT22;32620;51.704;7.822;2023-02-04T01:28:28;4.70;99.90
46416;DHT22;32620;51.704;7.822;2023-02-04T01:30:54;4.80;99.90
46416;DHT22;32620;51.704;7.822;2023-02-04T01:33:19;4.80;99.90
46416;DHT22;32620;51.704;7.822;2023-02-04T01:35:45;4.70;99.90
46416;DHT22;32620;51.704;7.822;2023-02-04T01:38:10;4.80;99.90
46416;DHT22;32620;51.704;7.822;2023-02-04T01:40:36;4.80;99.90
46416;DHT22;32620;51.704;7.822;2023-02-04T01:43:02;4.80;99.90
46416;DHT22;32620;51.704;7.822;2023-02-04T01:45:28;4.80;99.90
46416;DHT22;32620;51.704;7.822;2023-02-04T01:47:55;4.80;99.90
46416;DHT22;32620;51.704;7.822;2023-02-04T01:50:20;4.80;99.90
46416;DHT22;32620;51.704;7.822;2023-02-04T01:52:46;4.80;99.90
46416;DHT22;32620;51.704;7.822;2023-02-04T01:55:15;4.80;99.90
46416;DHT22;32620;51.704;7.822;2023-02-04T01:57:41;4.80;99.90
46416;DHT22;32620;51.704;7.822;2023-02-04T02:00:18;4.80;99.90
46416;DHT22;32620;51.704;7.822;2023-02-04T02:02:48;4.80;99.90
46416;DHT22;32620;51.704;7.822;2023-02-04T02:05:21;4.90;99.90
46416;DHT22;32620;51.704;7.822;2023-02-04T02:07:48;4.90;99.90
46416;DHT22;32620;51.704;7.822;2023-02-04T02:10:14;4.90;99.90
46416;DHT22;32620;51.704;7.822;2023-02-04T02:12:40;5.00;99.90
46416;DHT22;32620;51.704;7.822;2023-02-04T02:15:07;5.00;99.90
46416;DHT22;32620;51.704;7.822;2023-02-04T02:17:33;5.00;99.90
46416;DHT22;32620;51.704;7.822;2023-02-04T02:19:59;5.00;99.90
46416;DHT22;32620;51.704;7.822;2023-02-04T02:22:31;5.10;99.90
46416;DHT22;32620;51.704;7.822;2023-02-04T02:24:57;5.10;99.90
46416;DHT22;32620;51.704;7.822;2023-02-04T02:27:23;5.00;99.90
46416;DHT22;32620;51.704;7.822;2023-02-04T02:29:49;5.10;99.90
46416;DHT22;32620;51.704;7.822;2023-02-04T02:32:15;5.20;99.90
46416;DHT22;32620;51.704;7.822;2023-02-04T02:34:42;5.20;99.90
46416;DHT22;32620;51.704;7.822;2023-02-04T02:37:07;5.20;99.90
46416;DHT22;32620;51.704;7.822;2023-02-04T02:39:34;5.30;99.90
46416;DHT22;32620;51.704;7.822;2023-02-04T02:42:00;5.30;99.90
46416;DHT22;32620;51.704;7.822;2023-02-04T02:44:27;5.30;99.90
46416;DHT22;32620;51.704;7.822;2023-02-04T02:46:53;5.30;99.90
46416;DHT22;32620;51.704;7.822;2023-02-04T02:49:20;5.30;99.90
46416;DHT22;32620;51.704;7.822;2023-02-04T02:51:47;5.40;99.90
46416;DHT22;32620;51.704;7.822;2023-02-04T02:54:23;5.40;99.90
46416;DHT22;32620;51.704;7.822;2023-02-04T02:56:50;5.50;99.90
46416;DHT22;32620;51.704;7.822;2023-02-04T02:59:17;5.50;99.90
46416;DHT22;32620;51.704;7.822;2023-02-04T03:01:43;5.50;99.90
46416;DHT22;32620;51.704;7.822;2023-02-04T03:04:09;5.50;99.90
46416;DHT22;32620;51.704;7.822;2023-02-04T03:06:36;5.50;99.90
46416;DHT22;32620;51.704;7.822;2023-02-04T03:09:01;5.50;99.90
46416;DHT22;32620;51.704;7.822;2023-02-04T03:11:27;5.50;99.90
46416;DHT22;32620;51.704;7.822;2023-02-04T03:13:55;5.50;99.90
46416;DHT22;32620;51.704;7.822;2023-02-04T03:16:21;5.50;99.90
46416;DHT22;32620;51.704;7.822;2023-02-04T03:18:48;5.50;99.90
46416;DHT22;32620;51.704;7.822;2023-02-04T03:21:14;5.50;99.90
46416;DHT22;32620;51.704;7.822;2023-02-04T03:23:39;5.40;99.90
46416;DHT22;32620;51.704;7.822;2023-02-04T03:26:05;5.40;99.90
46416;DHT22;32620;51.704;7.822;2023-02-04T03:28:31;5.40;99.90
46416;DHT22;32620;51.704;7.822;2023-02-04T03:30:57;5.40;99.90
46416;DHT22;32620;51.704;7.822;2023-02-04T03:33:26;5.40;99.90
46416;DHT22;32620;51.704;7.822;2023-02-04T03:35:57;5.40;99.90
46416;DHT22;32620;51.704;7.822;2023-02-04T03:38:23;5.40;99.90
46416;DHT22;32620;51.704;7.822;2023-02-04T03:40:48;5.40;99.90
46416;DHT22;32620;51.704;7.822;2023-02-04T03:43:14;5.40;99.90
46416;DHT22;32620;51.704;7.822;2023-02-04T03:45:39;5.40;99.90
46416;DHT22;32620;51.704;7.822;2023-02-04T03:48:05;5.40;99.90
46416;DHT22;32620;51.704;7.822;2023-02-04T03:50:31;5.40;99.90
46416;DHT22;32620;51.704;7.822;2023-02-04T03:52:56;5.40;99.90
46416;DHT22;32620;51.704;7.822;2023-02-04T03:55:22;5.40;99.90
46416;DHT22;32620;51.704;7.822;2023-02-04T03:57:47;5.40;99.90
46416;DHT22;32620;51.704;7.822;2023-02-04T04:00:13;5.40;99.90
46416;DHT22;32620;51.704;7.822;2023-02-04T04:02:40;5.30;99.90
46416;DHT22;32620;51.704;7.822;2023-02-04T04:05:07;5.30;99.90
46416;DHT22;32620;51.704;7.822;2023-02-04T04:07:32;5.30;99.90
46416;DHT22;32620;51.704;7.822;2023-02-04T04:09:58;5.30;99.90
46416;DHT22;32620;51.704;7.822;2023-02-04T04:12:23;5.30;99.90
46416;DHT22;32620;51.704;7.822;2023-02-04T04:14:49;5.30;99.90
46416;DHT22;32620;51.704;7.822;2023-02-04T04:17:14;5.30;99.90
46416;DHT22;32620;51.704;7.822;2023-02-04T04:19:40;5.30;99.90
46416;DHT22;32620;51.704;7.822;2023-02-04T04:22:06;5.30;99.90
46416;DHT22;32620;51.704;7.822;2023-02-04T04:24:31;5.30;99.90
46416;DHT22;32620;51.704;7.822;2023-02-04T04:26:57;5.30;99.90
46416;DHT22;32620;51.704;7.822;2023-02-04T04:29:23;5.20;99.90
46416;DHT22;32620;51.704;7.822;2023-02-04T04:31:48;5.30;99.90
46416;DHT22;32620;51.704;7.822;2023-02-04T04:34:14;5.20;99.90
46416;DHT22;32620;51.704;7.822;2023-02-04T04:36:39;5.20;99.90
46416;DHT22;32620;51.704;7.822;2023-02-04T04:39:05;5.10;99.90
46416;DHT22;32620;51.704;7.822;2023-02-04T04:41:30;5.10;99.90
46416;DHT22;32620;51.704;7.822;2023-02-04T04:43:56;5.00;99.90
46416;DHT22;32620;51.704;7.822;2023-02-04T04:46:21;5.00;99.90
46416;DHT22;32620;51.704;7.822;2023-02-04T04:48:47;5.00;99.90
46416;DHT22;32620;51.704;7.822;2023-02-04T04:51:13;5.00;99.90
46416;DHT22;32620;51.704;7.822;2023-02-04T04:53:38;5.10;99.90
46416;DHT22;32620;51.704;7.822;2023-02-04T04:56:04;5.10;99.90
46416;DHT22;32620;51.704;7.822;2023-02-04T04:58:29;5.20;99.90
46416;DHT22;32620;51.704;7.822;2023-02-04T05:00:55;5.30;99.90
46416;DHT22;32620;51.704;7.822;2023-02-04T05:03:20;5.30;99.90
46416;DHT22;32620;51.704;7.822;2023-02-04T05:05:46;5.30;99.90
46416;DHT22;32620;51.704;7.822;2023-02-04T05:08:11;5.30;99.90
46416;DHT22;32620;51.704;7.822;2023-02-04T05:10:39;5.40;99.90
46416;DHT22;32620;51.704;7.822;2023-02-04T05:13:05;5.40;99.90
46416;DHT22;32620;51.704;7.822;2023-02-04T05:15:31;5.40;99.90
46416;DHT22;32620;51.704;7.822;2023-02-04T05:17:56;5.40;99.90
46416;DHT22;32620;51.704;7.822;2023-02-04T05:20:23;5.50;99.90
46416;DHT22;32620;51.704;7.822;2023-02-04T05:22:49;5.50;99.90
46416;DHT22;32620;51.704;7.822;2023-02-04T05:25:14;5.50;99.90
46416;DHT22;32620;51.704;7.822;2023-02-04T05:27:42;5.50;99.90
46416;DHT22;32620;51.704;7.822;2023-02-04T05:30:10;5.50;99.90
46416;DHT22;32620;51.704;7.822;2023-02-04T05:32:36;5.60;99.90
46416;DHT22;32620;51.704;7.822;2023-02-04T05:35:02;5.60;99.90
46416;DHT22;32620;51.704;7.822;2023-02-04T05:37:28;5.60;99.90
46416;DHT22;32620;51.704;7.822;2023-02-04T05:39:54;5.60;99.90
46416;DHT22;32620;51.704;7.822;2023-02-04T05:42:19;5.60;99.90
46416;DHT22;32620;51.704;7.822;2023-02-04T05:44:45;5.60;99.90
46416;DHT22;32620;51.704;7.822;2023-02-04T05:47:10;5.60;99.90
46416;DHT22;32620;51.704;7.822;2023-02-04T05:49:36;5.60;99.90
46416;DHT22;32620;51.704;7.822;2023-02-04T05:52:01;5.60;99.90
46416;DHT22;32620;51.704;7.822;2023-02-04T05:54:27;5.60;99.90
46416;DHT22;32620;51.704;7.822;2023-02-04T05:56:53;5.60;99.90
46416;DHT22;32620;51.704;7.822;2023-02-04T05:59:18;5.60;99.90
46416;DHT22;32620;51.704;7.822;2023-02-04T06:01:44;5.60;99.90
46416;DHT22;32620;51.704;7.822;2023-02-04T06:04:09;5.50;99.90
46416;DHT22;32620;51.704;7.822;2023-02-04T06:06:35;5.50;99.90
46416;DHT22;32620;51.704;7.822;2023-02-04T06:09:00;5.50;99.90
46416;DHT22;32620;51.704;7.822;2023-02-04T06:11:26;5.50;99.90
46416;DHT22;32620;51.704;7.822;2023-02-04T06:13:52;5.50;99.90
46416;DHT22;32620;51.704;7.822;2023-02-04T06:16:17;5.50;99.90
46416;DHT22;32620;51.704;7.822;2023-02-04T06:18:43;5.50;99.90
46416;DHT22;32620;51.704;7.822;2023-02-04T06:21:08;5.50;99.90
46416;DHT22;32620;51.704;7.822;2023-02-04T06:23:34;5.50;99.90
46416;DHT22;32620;51.704;7.822;2023-02-04T06:26:01;5.40;99.90
46416;DHT22;32620;51.704;7.822;2023-02-04T06:28:26;5.40;99.90
46416;DHT22;32620;51.704;7.822;2023-02-04T06:30:52;5.40;99.90
46416;DHT22;32620;51.704;7.822;2023-02-04T06:33:17;5.40;99.90
46416;DHT22;32620;51.704;7.822;2023-02-04T06:35:43;5.40;99.90
46416;DHT22;32620;51.704;7.822;2023-02-04T06:38:08;5.30;99.90
46416;DHT22;32620;51.704;7.822;2023-02-04T06:40:34;5.30;99.90
46416;DHT22;32620;51.704;7.822;2023-02-04T06:42:59;5.30;99.90
46416;DHT22;32620;51.704;7.822;2023-02-04T06:45:25;5.30;99.90
46416;DHT22;32620;51.704;7.822;2023-02-04T06:47:50;5.30;99.90
46416;DHT22;32620;51.704;7.822;2023-02-04T06:50:16;5.20;99.90
46416;DHT22;32620;51.704;7.822;2023-02-04T06:52:44;5.20;99.90
46416;DHT22;32620;51.704;7.822;2023-02-04T06:55:11;5.20;99.90
46416;DHT22;32620;51.704;7.822;2023-02-04T06:57:37;5.20;99.90
46416;DHT22;32620;51.704;7.822;2023-02-04T07:00:03;5.20;99.90
46416;DHT22;32620;51.704;7.822;2023-02-04T07:02:28;5.10;99.90
46416;DHT22;32620;51.704;7.822;2023-02-04T07:04:54;5.20;99.90
46416;DHT22;32620;51.704;7.822;2023-02-04T07:07:19;5.20;99.90
46416;DHT22;32620;51.704;7.822;2023-02-04T07:09:45;5.20;99.90
46416;DHT22;32620;51.704;7.822;2023-02-04T07:12:10;5.20;99.90
46416;DHT22;32620;51.704;7.822;2023-02-04T07:14:36;5.20;99.90
46416;DHT22;32620;51.704;7.822;2023-02-04T07:17:02;5.20;99.90
46416;DHT22;32620;51.704;7.822;2023-02-04T07:19:27;5.20;99.90
46416;DHT22;32620;51.704;7.822;2023-02-04T07:21:53;5.20;99.90
46416;DHT22;32620;51.704;7.822;2023-02-04T07:24:21;5.20;99.90
46416;DHT22;32620;51.704;7.822;2023-02-04T07:26:47;5.20;99.90
46416;DHT22;32620;51.704;7.822;2023-02-04T07:29:13;5.10;99.90
46416;DHT22;32620;51.704;7.822;2023-02-04T07:31:39;5.20;99.90
46416;DHT22;32620;51.704;7.822;2023-02-04T07:34:04;5.20;99.90
46416;DHT22;32620;51.704;7.822;2023-02-04T07:36:30;5.20;99.90
46416;DHT22;32620;51.704;7.822;2023-02-04T07:38:55;5.30;99.90
46416;DHT22;32620;51.704;7.822;2023-02-04T07:41:21;5.20;99.90
46416;DHT22;32620;51.704;7.822;2023-02-04T07:43:46;5.30;99.90
46416;DHT22;32620;51.704;7.822;2023-02-04T07:46:12;5.40;99.90
46416;DHT22;32620;51.704;7.822;2023-02-04T07:48:38;5.40;99.90
46416;DHT22;32620;51.704;7.822;2023-02-04T07:51:03;5.50;99.90
46416;DHT22;32620;51.704;7.822;2023-02-04T07:53:29;5.50;99.90
46416;DHT22;32620;51.704;7.822;2023-02-04T07:55:55;5.60;99.90
46416;DHT22;32620;51.704;7.822;2023-02-04T07:58:20;5.90;99.90
46416;DHT22;32620;51.704;7.822;2023-02-04T08:00:47;5.90;99.90
46416;DHT22;32620;51.704;7.822;2023-02-04T08:03:12;6.00;99.90
46416;DHT22;32620;51.704;7.822;2023-02-04T08:05:38;6.10;99.90
46416;DHT22;32620;51.704;7.822;2023-02-04T08:08:04;6.30;99.90
46416;DHT22;32620;51.704;7.822;2023-02-04T08:10:29;6.30;99.90
46416;DHT22;32620;51.704;7.822;2023-02-04T08:12:55;6.40;99.90
46416;DHT22;32620;51.704;7.822;2023-02-04T08:15:20;6.60;99.90
46416;DHT22;32620;51.704;7.822;2023-02-04T08:17:46;6.80;99.90
46416;DHT22;32620;51.704;7.822;2023-02-04T08:20:11;7.00;99.90
46416;DHT22;32620;51.704;7.822;2023-02-04T08:22:37;7.10;99.90
46416;DHT22;32620;51.704;7.822;2023-02-04T08:25:03;7.20;99.90
46416;DHT22;32620;51.704;7.822;2023-02-04T08:27:30;7.30;99.90
46416;DHT22;32620;51.704;7.822;2023-02-04T08:29:55;7.30;99.90
46416;DHT22;32620;51.704;7.822;2023-02-04T08:32:21;7.20;99.90
46416;DHT22;32620;51.704;7.822;2023-02-04T08:34:46;7.30;99.90
46416;DHT22;32620;51.704;7.822;2023-02-04T08:37:13;7.40;99.90
46416;DHT22;32620;51.704;7.822;2023-02-04T08:39:39;7.40;99.90
46416;DHT22;32620;51.704;7.822;2023-02-04T08:42:10;7.60;99.90
46416;DHT22;32620;51.704;7.822;2023-02-04T08:44:36;7.60;99.90
46416;DHT22;32620;51.704;7.822;2023-02-04T08:47:01;7.90;99.90
46416;DHT22;32620;51.704;7.822;2023-02-04T08:49:27;8.50;99.90
46416;DHT22;32620;51.704;7.822;2023-02-04T08:51:52;8.30;99.90
46416;DHT22;32620;51.704;7.822;2023-02-04T08:54:18;8.50;99.90
46416;DHT22;32620;51.704;7.822;2023-02-04T08:56:43;8.50;99.90
46416;DHT22;32620;51.704;7.822;2023-02-04T08:59:09;8.30;99.90
46416;DHT22;32620;51.704;7.822;2023-02-04T09:01:34;8.20;99.90
46416;DHT22;32620;51.704;7.822;2023-02-04T09:04:00;7.70;99.90
46416;DHT22;32620;51.704;7.822;2023-02-04T09:06:25;7.50;99.90
46416;DHT22;32620;51.704;7.822;2023-02-04T09:08:51;7.40;99.90
46416;DHT22;32620;51.704;7.822;2023-02-04T09:11:16;7.40;99.90
46416;DHT22;32620;51.704;7.822;2023-02-04T09:13:42;7.40;99.90
46416;DHT22;32620;51.704;7.822;2023-02-04T09:16:07;7.50;99.90
46416;DHT22;32620;51.704;7.822;2023-02-04T09:18:33;7.50;99.90
46416;DHT22;32620;51.704;7.822;2023-02-04T09:20:59;7.70;99.90
46416;DHT22;32620;51.704;7.822;2023-02-04T09:23:25;7.80;99.90
46416;DHT22;32620;51.704;7.822;2023-02-04T09:25:50;7.60;99.90
46416;DHT22;32620;51.704;7.822;2023-02-04T09:28:16;7.40;99.90
46416;DHT22;32620;51.704;7.822;2023-02-04T09:30:43;7.40;99.90
46416;DHT22;32620;51.704;7.822;2023-02-04T09:33:10;7.40;99.90
46416;DHT22;32620;51.704;7.822;2023-02-04T09:35:37;7.50;99.90
46416;DHT22;32620;51.704;7.822;2023-02-04T09:38:03;7.60;99.90
46416;DHT22;32620;51.704;7.822;2023-02-04T09:40:32;7.70;99.90
46416;DHT22;32620;51.704;7.822;2023-02-04T09:43:01;7.90;99.90
46416;DHT22;32620;51.704;7.822;2023-02-04T09:45:31;7.80;99.90
46416;DHT22;32620;51.704;7.822;2023-02-04T09:47:58;7.60;99.90
46416;DHT22;32620;51.704;7.822;2023-02-04T09:50:27;7.60;99.90
46416;DHT22;32620;51.704;7.822;2023-02-04T09:52:56;7.90;99.90
46416;DHT22;32620;51.704;7.822;2023-02-04T09:55:29;7.80;99.90
46416;DHT22;32620;51.704;7.822;2023-02-04T09:57:56;8.10;99.90
46416;DHT22;32620;51.704;7.822;2023-02-04T10:00:24;8.20;99.90
46416;DHT22;32620;51.704;7.822;2023-02-04T10:02:50;8.90;99.90
46416;DHT22;32620;51.704;7.822;2023-02-04T10:05:19;9.20;99.90
46416;DHT22;32620;51.704;7.822;2023-02-04T10:07:45;9.40;99.90
46416;DHT22;32620;51.704;7.822;2023-02-04T10:10:16;9.40;99.90
46416;DHT22;32620;51.704;7.822;2023-02-04T10:12:43;9.30;99.90
46416;DHT22;32620;51.704;7.822;2023-02-04T10:15:17;8.90;99.90
46416;DHT22;32620;51.704;7.822;2023-02-04T10:17:46;8.80;99.90
46416;DHT22;32620;51.704;7.822;2023-02-04T10:20:14;9.00;99.90
46416;DHT22;32620;51.704;7.822;2023-02-04T10:22:40;9.10;99.90
46416;DHT22;32620;51.704;7.822;2023-02-04T10:25:12;9.20;99.90
46416;DHT22;32620;51.704;7.822;2023-02-04T10:27:56;9.50;99.90
46416;DHT22;32620;51.704;7.822;2023-02-04T10:30:25;9.70;99.90
46416;DHT22;32620;51.704;7.822;2023-02-04T10:32:53;9.80;99.90
46416;DHT22;32620;51.704;7.822;2023-02-04T10:35:20;10.50;99.90
46416;DHT22;32620;51.704;7.822;2023-02-04T10:37:47;11.00;99.90
46416;DHT22;32620;51.704;7.822;2023-02-04T10:40:33;11.10;99.90
46416;DHT22;32620;51.704;7.822;2023-02-04T10:43:08;11.00;99.90
46416;DHT22;32620;51.704;7.822;2023-02-04T10:45:35;10.50;99.90
46416;DHT22;32620;51.704;7.822;2023-02-04T10:48:02;9.90;99.90
46416;DHT22;32620;51.704;7.822;2023-02-04T10:50:28;10.70;99.90
46416;DHT22;32620;51.704;7.822;2023-02-04T10:52:57;10.50;99.90
46416;DHT22;32620;51.704;7.822;2023-02-04T10:55:44;10.90;99.90
46416;DHT22;32620;51.704;7.822;2023-02-04T10:58:15;10.60;99.90
46416;DHT22;32620;51.704;7.822;2023-02-04T11:00:41;10.10;99.90
46416;DHT22;32620;51.704;7.822;2023-02-04T11:03:21;10.10;99.90
46416;DHT22;32620;51.704;7.822;2023-02-04T11:05:48;9.70;99.90
46416;DHT22;32620;51.704;7.822;2023-02-04T11:08:22;9.40;99.90
46416;DHT22;32620;51.704;7.822;2023-02-04T11:11:05;9.00;99.90
46416;DHT22;32620;51.704;7.822;2023-02-04T11:13:42;8.70;99.90
46416;DHT22;32620;51.704;7.822;2023-02-04T11:16:27;8.50;99.90
46416;DHT22;32620;51.704;7.822;2023-02-04T11:18:58;8.50;99.90
46416;DHT22;32620;51.704;7.822;2023-02-04T11:26:51;8.30;99.90
46416;DHT22;32620;51.704;7.822;2023-02-04T11:29:27;8.40;99.90
46416;DHT22;32620;51.704;7.822;2023-02-04T11:32:01;8.20;99.90
46416;DHT22;32620;51.704;7.822;2023-02-04T11:34:29;8.20;99.90
46416;DHT22;32620;51.704;7.822;2023-02-04T11:39:39;8.30;99.90
46416;DHT22;32620;51.704;7.822;2023-02-04T11:42:17;8.40;99.90
46416;DHT22;32620;51.704;7.822;2023-02-04T11:44:53;8.60;99.90
46416;DHT22;32620;51.704;7.822;2023-02-04T11:47:21;8.50;99.90
46416;DHT22;32620;51.704;7.822;2023-02-04T11:50:01;8.40;99.90
46416;DHT22;32620;51.704;7.822;2023-02-04T11:52:27;8.40;99.90
46416;DHT22;32620;51.704;7.822;2023-02-04T11:54:54;8.20;99.90
46416;DHT22;32620;51.704;7.822;2023-02-04T11:57:20;8.20;99.90
46416;DHT22;32620;51.704;7.822;2023-02-04T11:59:46;8.10;99.90
46416;DHT22;32620;51.704;7.822;2023-02-04T12:02:17;8.20;99.90
46416;DHT22;32620;51.704;7.822;2023-02-04T12:04:54;8.20;99.90
46416;DHT22;32620;51.704;7.822;2023-02-04T12:07:24;8.20;99.90
46416;DHT22;32620;51.704;7.822;2023-02-04T12:09:49;8.30;99.90
46416;DHT22;32620;51.704;7.822;2023-02-04T12:12:24;8.10;99.90
46416;DHT22;32620;51.704;7.822;2023-02-04T12:15:03;8.20;99.90
46416;DHT22;32620;51.704;7.822;2023-02-04T12:17:33;8.20;99.90
46416;DHT22;32620;51.704;7.822;2023-02-04T12:19:58;8.20;99.90
46416;DHT22;32620;51.704;7.822;2023-02-04T12:22:24;8.20;99.90
46416;DHT22;32620;51.704;7.822;2023-02-04T12:24:50;8.20;99.90
46416;DHT22;32620;51.704;7.822;2023-02-04T12:27:16;8.30;99.90
46416;DHT22;32620;51.704;7.822;2023-02-04T12:29:42;8.50;99.90
46416;DHT22;32620;51.704;7.822;2023-02-04T12:32:08;8.40;99.90
46416;DHT22;32620;51.704;7.822;2023-02-04T12:34:33;8.40;99.90
46416;DHT22;32620;51.704;7.822;2023-02-04T12:36:59;8.60;99.90
46416;DHT22;32620;51.704;7.822;2023-02-04T12:39:24;8.50;99.90
46416;DHT22;32620;51.704;7.822;2023-02-04T12:41:50;8.60;99.90
46416;DHT22;32620;51.704;7.822;2023-02-04T12:44:16;8.40;99.90
46416;DHT22;32620;51.704;7.822;2023-02-04T12:46:42;8.40;99.90
46416;DHT22;32620;51.704;7.822;2023-02-04T12:49:08;8.50;99.90
46416;DHT22;32620;51.704;7.822;2023-02-04T12:51:34;8.50;99.90
46416;DHT22;32620;51.704;7.822;2023-02-04T12:53:59;8.60;99.90
46416;DHT22;32620;51.704;7.822;2023-02-04T12:56:25;8.80;99.90
46416;DHT22;32620;51.704;7.822;2023-02-04T12:58:50;8.90;99.90
46416;DHT22;32620;51.704;7.822;2023-02-04T13:01:16;9.00;99.90
46416;DHT22;32620;51.704;7.822;2023-02-04T13:03:42;8.80;99.90
46416;DHT22;32620;51.704;7.822;2023-02-04T13:06:07;8.60;99.90
46416;DHT22;32620;51.704;7.822;2023-02-04T13:08:33;8.70;99.90
46416;DHT22;32620;51.704;7.822;2023-02-04T13:10:58;8.70;99.90
46416;DHT22;32620;51.704;7.822;2023-02-04T13:13:24;8.60;99.90
46416;DHT22;32620;51.704;7.822;2023-02-04T13:15:50;8.70;99.90
46416;DHT22;32620;51.704;7.822;2023-02-04T13:18:15;8.50;99.90
46416;DHT22;32620;51.704;7.822;2023-02-04T13:20:42;8.50;99.90
46416;DHT22;32620;51.704;7.822;2023-02-04T13:23:08;8.60;99.90
46416;DHT22;32620;51.704;7.822;2023-02-04T13:25:34;8.60;99.90
46416;DHT22;32620;51.704;7.822;2023-02-04T13:27:59;8.60;99.90
46416;DHT22;32620;51.704;7.822;2023-02-04T13:30:25;8.60;99.90
46416;DHT22;32620;51.704;7.822;2023-02-04T13:32:50;8.70;99.90
46416;DHT22;32620;51.704;7.822;2023-02-04T13:35:16;8.70;99.90
46416;DHT22;32620;51.704;7.822;2023-02-04T13:37:43;8.70;99.90
46416;DHT22;32620;51.704;7.822;2023-02-04T13:40:10;8.70;99.90
46416;DHT22;32620;51.704;7.822;2023-02-04T13:42:36;8.70;99.90
46416;DHT22;32620;51.704;7.822;2023-02-04T13:45:02;8.70;99.90
46416;DHT22;32620;51.704;7.822;2023-02-04T13:47:28;8.80;99.90
46416;DHT22;32620;51.704;7.822;2023-02-04T13:49:53;8.90;99.90
46416;DHT22;32620;51.704;7.822;2023-02-04T13:52:19;8.70;99.90
46416;DHT22;32620;51.704;7.822;2023-02-04T13:54:45;8.60;99.90
46416;DHT22;32620;51.704;7.822;2023-02-04T13:57:10;8.60;99.90
46416;DHT22;32620;51.704;7.822;2023-02-04T13:59:36;8.50;99.90
46416;DHT22;32620;51.704;7.822;2023-02-04T14:02:02;8.60;99.90
46416;DHT22;32620;51.704;7.822;2023-02-04T14:04:27;8.70;99.90
46416;DHT22;32620;51.704;7.822;2023-02-04T14:06:53;8.70;99.90
46416;DHT22;32620;51.704;7.822;2023-02-04T14:09:19;8.70;99.90
46416;DHT22;32620;51.704;7.822;2023-02-04T14:11:46;8.50;99.90
46416;DHT22;32620;51.704;7.822;2023-02-04T14:14:11;8.40;99.90
46416;DHT22;32620;51.704;7.822;2023-02-04T14:16:37;8.40;99.90
46416;DHT22;32620;51.704;7.822;2023-02-04T14:19:02;8.40;99.90
46416;DHT22;32620;51.704;7.822;2023-02-04T14:21:28;8.40;99.90
46416;DHT22;32620;51.704;7.822;2023-02-04T14:23:54;8.40;99.90
46416;DHT22;32620;51.704;7.822;2023-02-04T14:26:19;8.20;99.90
46416;DHT22;32620;51.704;7.822;2023-02-04T14:28:45;8.20;99.90
46416;DHT22;32620;51.704;7.822;2023-02-04T14:31:10;8.10;99.90
46416;DHT22;32620;51.704;7.822;2023-02-04T14:33:36;8.00;99.90
46416;DHT22;32620;51.704;7.822;2023-02-04T14:36:01;8.00;99.90
46416;DHT22;32620;51.704;7.822;2023-02-04T14:38:27;8.00;99.90
46416;DHT22;32620;51.704;7.822;2023-02-04T14:40:56;8.00;99.90
46416;DHT22;32620;51.704;7.822;2023-02-04T14:43:22;8.00;99.90
46416;DHT22;32620;51.704;7.822;2023-02-04T14:45:47;7.90;99.90
46416;DHT22;32620;51.704;7.822;2023-02-04T14:48:13;7.90;99.90
46416;DHT22;32620;51.704;7.822;2023-02-04T14:50:39;8.00;99.90
46416;DHT22;32620;51.704;7.822;2023-02-04T14:53:04;7.90;99.90
46416;DHT22;32620;51.704;7.822;2023-02-04T14:55:30;7.90;99.90
46416;DHT22;32620;51.704;7.822;2023-02-04T14:57:55;7.90;99.90
46416;DHT22;32620;51.704;7.822;2023-02-04T15:00:21;7.80;99.90
46416;DHT22;32620;51.704;7.822;2023-02-04T15:02:47;7.80;99.90
46416;DHT22;32620;51.704;7.822;2023-02-04T15:05:13;7.70;99.90
46416;DHT22;32620;51.704;7.822;2023-02-04T15:07:39;7.70;99.90
46416;DHT22;32620;51.704;7.822;2023-02-04T15:10:05;7.70;99.90
46416;DHT22;32620;51.704;7.822;2023-02-04T15:12:31;7.70;99.90
46416;DHT22;32620;51.704;7.822;2023-02-04T15:14:56;7.70;99.90
46416;DHT22;32620;51.704;7.822;2023-02-04T15:17:22;7.70;99.90
46416;DHT22;32620;51.704;7.822;2023-02-04T15:19:48;7.70;99.90
46416;DHT22;32620;51.704;7.822;2023-02-04T15:22:13;7.60;99.90
46416;DHT22;32620;51.704;7.822;2023-02-04T15:24:39;7.60;99.90
46416;DHT22;32620;51.704;7.822;2023-02-04T15:27:05;7.60;99.90
46416;DHT22;32620;51.704;7.822;2023-02-04T15:29:31;7.50;99.90
46416;DHT22;32620;51.704;7.822;2023-02-04T15:31:57;7.50;99.90
46416;DHT22;32620;51.704;7.822;2023-02-04T15:34:22;7.50;99.90
46416;DHT22;32620;51.704;7.822;2023-02-04T15:36:48;7.50;99.90
46416;DHT22;32620;51.704;7.822;2023-02-04T15:39:13;7.40;99.90
46416;DHT22;32620;51.704;7.822;2023-02-04T15:41:39;7.40;99.90
46416;DHT22;32620;51.704;7.822;2023-02-04T15:44:05;7.40;99.90
46416;DHT22;32620;51.704;7.822;2023-02-04T15:46:32;7.40;99.90
46416;DHT22;32620;51.704;7.822;2023-02-04T15:48:59;7.40;99.90